createdAt,value
2023-04-15T05:00:59.889Z,8.28
2023-04-15T05:03:29.697Z,8.30
2023-04-15T05:05:58.797Z,8.30
2023-04-15T05:08:27.766Z,8.30
2023-04-15T05:10:56.931Z,8.30
2023-04-15T05:13:26.283Z,8.30
2023-04-15T05:15:55.157Z,8.30
2023-04-15T05:18:23.889Z,8.30
2023-04-15T05:20:52.520Z,8.30
2023-04-15T05:23:21.616Z,8.30
2023-04-15T05:25:50.397Z,8.32
2023-04-15T05:28:19.286Z,8.40
2023-04-15T05:30:48.954Z,8.40
2023-04-15T05:33:18.011Z,8.40
2023-04-15T05:35:47.305Z,8.34
2023-04-15T05:38:16.534Z,8.32
2023-04-15T05:40:45.382Z,8.38
2023-04-15T05:43:14.273Z,8.40
2023-04-15T05:45:43.155Z,8.40
2023-04-15T05:48:12.393Z,8.40
2023-04-15T05:50:42.804Z,8.40
2023-04-15T05:53:12.105Z,8.40
2023-04-15T05:55:40.676Z,8.40
2023-04-15T05:58:09.778Z,8.40
2023-04-15T06:00:40.564Z,8.50
2023-04-15T06:03:09.960Z,8.52
2023-04-15T06:05:38.819Z,8.60
2023-04-15T06:08:11.798Z,8.70
2023-04-15T06:10:41.850Z,8.90
2023-04-15T06:13:10.512Z,9.00
2023-04-15T06:15:39.596Z,9.16
2023-04-15T06:18:08.384Z,9.30
2023-04-15T06:20:37.287Z,9.44
2023-04-15T06:23:06.476Z,9.58
2023-04-15T06:25:35.260Z,9.68
2023-04-15T06:28:04.548Z,9.70
2023-04-15T06:30:33.366Z,9.80
2023-04-15T06:33:05.900Z,9.80
2023-04-15T06:35:35.196Z,9.84
2023-04-15T06:38:06.096Z,9.86
2023-04-15T06:40:35.763Z,9.90
2023-04-15T06:43:05.313Z,10.00
2023-04-15T06:45:34.188Z,10.00
2023-04-15T06:48:03.058Z,10.00
2023-04-15T06:50:32.043Z,9.90
2023-04-15T06:53:00.848Z,9.80
2023-04-15T06:55:29.658Z,9.80
2023-04-15T06:57:58.532Z,9.70
2023-04-15T07:00:28.592Z,9.70
2023-04-15T07:02:57.776Z,9.70
2023-04-15T07:05:26.766Z,9.74
2023-04-15T07:07:55.930Z,9.88
2023-04-15T07:10:25.815Z,10.00
2023-04-15T07:12:54.626Z,10.14
2023-04-15T07:15:23.974Z,10.30
2023-04-15T07:17:52.760Z,10.40
2023-04-15T07:20:21.730Z,10.50
2023-04-15T07:22:50.524Z,10.50
2023-04-15T07:25:19.402Z,10.50
2023-04-15T07:27:48.846Z,10.50
2023-04-15T07:30:18.255Z,10.50
2023-04-15T07:32:47.573Z,10.50
2023-04-15T07:35:16.413Z,10.50
2023-04-15T07:37:45.206Z,10.50
2023-04-15T07:40:15.017Z,10.50
2023-04-15T07:42:46.034Z,10.54
2023-04-15T07:45:16.536Z,10.70
2023-04-15T07:47:46.237Z,10.80
2023-04-15T07:50:16.150Z,10.90
2023-04-15T07:52:46.130Z,11.00
2023-04-15T07:55:15.633Z,11.10
2023-04-15T07:57:44.250Z,11.10
2023-04-15T08:00:14.517Z,11.18
2023-04-15T08:02:44.011Z,11.20
2023-04-15T08:05:14.236Z,11.30
2023-04-15T08:07:43.059Z,11.42
2023-04-15T08:10:12.470Z,11.56
2023-04-15T08:12:41.833Z,11.70
2023-04-15T08:15:11.279Z,11.80
2023-04-15T08:17:40.117Z,11.88
2023-04-15T08:20:10.375Z,12.06
2023-04-15T08:22:40.025Z,12.28
2023-04-15T08:25:10.604Z,12.40
2023-04-15T08:27:39.437Z,12.40
2023-04-15T08:30:09.791Z,12.42
2023-04-15T08:32:38.622Z,12.60
2023-04-15T08:35:08.257Z,12.70
2023-04-15T08:37:37.148Z,12.70
2023-04-15T08:40:08.742Z,12.74
2023-04-15T08:42:45.202Z,12.90
2023-04-15T08:45:14.248Z,13.00
2023-04-15T08:47:46.010Z,13.10
2023-04-15T08:50:16.734Z,13.20
2023-04-15T08:52:46.604Z,13.30
2023-04-15T08:55:17.200Z,13.30
2023-04-15T08:57:46.170Z,13.42
2023-04-15T09:00:16.374Z,13.70
2023-04-15T09:02:45.582Z,13.90
2023-04-15T09:05:14.647Z,14.04
2023-04-15T09:07:43.405Z,14.10
2023-04-15T09:10:12.968Z,14.20
2023-04-15T09:12:41.903Z,14.30
2023-04-15T09:15:14.175Z,14.40
2023-04-15T09:17:44.837Z,14.50
2023-04-15T09:20:16.369Z,14.62
2023-04-15T09:22:48.017Z,14.70
2023-04-15T09:25:22.921Z,14.74
2023-04-15T09:27:54.011Z,14.70
2023-04-15T09:30:24.391Z,14.70
2023-04-15T09:32:58.263Z,14.66
2023-04-15T09:35:28.248Z,14.50
2023-04-15T09:38:10.084Z,14.44
2023-04-15T09:40:42.171Z,14.40
2023-04-15T09:43:14.544Z,14.68
2023-04-15T09:45:54.608Z,14.68
2023-04-15T09:48:31.413Z,14.80
2023-04-15T09:51:02.127Z,14.92
2023-04-15T09:53:35.955Z,15.00
2023-04-15T09:56:08.110Z,14.90
2023-04-15T09:58:39.085Z,14.64
2023-04-15T10:01:09.488Z,14.20
2023-04-15T10:03:42.640Z,13.90
2023-04-15T10:06:12.172Z,13.90
2023-04-15T10:08:42.172Z,13.80
2023-04-15T10:11:13.009Z,13.42
2023-04-15T10:13:42.008Z,13.30
2023-04-15T10:16:20.660Z,13.34
2023-04-15T10:19:01.209Z,13.70
2023-04-15T10:21:31.219Z,13.70
2023-04-15T10:24:03.524Z,13.88
2023-04-15T10:26:32.782Z,14.00
2023-04-15T10:29:02.801Z,14.20
2023-04-15T10:31:32.089Z,14.40
2023-04-15T10:34:06.758Z,14.20
2023-04-15T10:36:35.449Z,14.10
2023-04-15T10:39:41.909Z,14.10
2023-04-15T10:42:19.666Z,14.40
2023-04-15T10:44:57.354Z,14.70
2023-04-15T10:47:26.548Z,14.70
2023-04-15T10:50:02.606Z,14.70
2023-04-15T10:52:31.391Z,14.40
2023-04-15T10:55:12.935Z,14.30
2023-04-15T10:57:43.466Z,14.20
2023-04-15T11:00:17.856Z,14.34
2023-04-15T11:03:07.918Z,14.60
2023-04-15T11:05:42.833Z,14.70
2023-04-15T11:08:13.638Z,14.70
2023-04-15T11:10:42.315Z,14.84
2023-04-15T11:13:27.416Z,14.90
2023-04-15T11:15:58.818Z,14.90
2023-04-15T11:18:30.943Z,14.90
2023-04-15T11:21:03.669Z,15.04
2023-04-15T11:23:44.430Z,14.98
2023-04-15T11:26:13.759Z,15.00
2023-04-15T11:28:46.418Z,15.10
2023-04-15T11:31:18.432Z,15.30
2023-04-15T11:34:08.234Z,15.50
2023-04-15T11:36:36.994Z,15.50
2023-04-15T11:39:08.183Z,15.60
2023-04-15T11:41:36.851Z,15.72
2023-04-15T11:44:18.620Z,15.90
2023-04-15T11:46:47.413Z,16.10
2023-04-15T12:06:21.420Z,15.10
2023-04-15T12:08:56.463Z,15.10
2023-04-15T12:11:31.829Z,14.88
2023-04-15T12:14:06.761Z,14.60
2023-04-15T12:19:15.889Z,14.88
2023-04-15T12:21:48.281Z,15.04
2023-04-15T12:24:26.068Z,15.20
2023-04-15T12:26:59.368Z,15.36
2023-04-15T12:29:31.567Z,15.50
2023-04-15T12:32:22.911Z,15.60
2023-04-15T12:34:55.124Z,15.50
2023-04-15T12:37:29.101Z,15.50
2023-04-15T12:39:59.540Z,15.50
2023-04-15T12:42:29.480Z,15.38
2023-04-15T12:44:59.132Z,15.30
2023-04-15T12:47:28.614Z,15.46
2023-04-15T12:49:58.951Z,15.60
2023-04-15T12:52:30.886Z,15.70
2023-04-15T12:55:03.365Z,15.80
2023-04-15T12:57:34.396Z,15.80
2023-04-15T13:00:08.564Z,15.70
2023-04-15T13:02:38.478Z,15.80
2023-04-15T13:05:08.475Z,15.92
2023-04-15T13:07:37.749Z,16.00
2023-04-15T13:10:07.806Z,15.90
2023-04-15T13:12:37.296Z,15.80
2023-04-15T13:15:07.049Z,15.60
2023-04-15T13:17:36.065Z,15.50
2023-04-15T13:20:05.209Z,15.40
2023-04-15T13:22:33.953Z,15.38
2023-04-15T13:25:03.456Z,15.30
2023-04-15T13:27:32.904Z,15.20
2023-04-15T13:30:02.272Z,15.18
2023-04-15T13:32:32.322Z,15.10
2023-04-15T13:35:02.122Z,15.20
2023-04-15T13:37:32.212Z,15.20
2023-04-15T13:40:01.697Z,15.20
2023-04-15T13:42:30.527Z,15.20
2023-04-15T13:44:59.521Z,15.10
2023-04-15T13:50:25.653Z,15.20
2023-04-15T13:52:54.657Z,15.20
2023-04-15T13:55:25.931Z,15.30
2023-04-15T13:57:56.808Z,15.30
2023-04-15T14:00:25.833Z,15.32
2023-04-15T14:02:55.291Z,15.20
2023-04-15T14:05:24.224Z,15.34
2023-04-15T14:07:53.832Z,15.40
2023-04-15T14:10:22.553Z,15.44
2023-04-15T14:12:51.371Z,15.30
2023-04-15T14:15:20.128Z,15.28
2023-04-15T14:17:49.056Z,15.30
2023-04-15T14:20:17.918Z,15.20
2023-04-15T14:22:46.948Z,15.10
2023-04-15T14:25:30.484Z,15.00
2023-04-15T14:28:03.931Z,14.90
2023-04-15T14:30:32.937Z,14.88
2023-04-15T14:33:01.954Z,14.80
2023-04-15T14:35:31.906Z,14.72
2023-04-15T14:38:03.351Z,14.80
2023-04-15T14:40:34.202Z,14.80
2023-04-15T14:43:03.806Z,14.70
2023-04-15T14:45:33.201Z,14.66
2023-04-15T14:48:03.080Z,14.50
2023-04-15T14:50:32.139Z,14.40
2023-04-15T14:53:01.133Z,14.30
2023-04-15T14:55:30.853Z,14.20
2023-04-15T14:57:59.565Z,14.20
2023-04-15T15:00:28.612Z,14.10
2023-04-15T15:02:58.020Z,14.10
2023-04-15T15:05:27.139Z,14.18
2023-04-15T15:07:56.891Z,14.10
2023-04-15T15:10:33.866Z,14.10
2023-04-15T15:13:16.315Z,14.10
2023-04-15T15:15:46.136Z,14.00
2023-04-15T15:18:15.431Z,14.08
2023-04-15T15:20:45.535Z,14.10
2023-04-15T15:23:15.157Z,14.10
2023-04-15T15:25:47.240Z,14.00
2023-04-15T15:28:16.321Z,13.80
2023-04-15T15:30:45.412Z,13.80
2023-04-15T15:33:14.702Z,13.90
2023-04-15T15:35:44.864Z,13.80
2023-04-15T15:38:14.021Z,13.78
2023-04-15T15:40:43.224Z,13.70
2023-04-15T15:43:12.274Z,13.78
2023-04-15T15:45:42.043Z,13.70
2023-04-15T18:48:21.582Z,10.20
2023-04-15T18:50:55.575Z,10.16
2023-04-15T18:53:29.136Z,10.10
2023-04-15T18:56:03.025Z,10.10
2023-04-15T18:59:28.173Z,10.10
2023-04-15T19:01:24.347Z,10.00
2023-04-15T19:03:54.790Z,10.00
2023-04-15T19:06:24.656Z,10.00
2023-04-15T19:08:55.546Z,9.98
2023-04-15T19:11:27.110Z,9.90
2023-04-15T19:14:00.082Z,9.90
2023-04-15T19:16:30.534Z,9.86
2023-04-15T19:19:00.796Z,9.80
2023-04-15T19:21:33.184Z,9.80
2023-04-15T19:24:04.916Z,9.70
2023-04-15T19:26:35.912Z,9.70
2023-04-15T19:29:07.092Z,9.70
2023-04-15T19:31:37.732Z,9.70
2023-04-15T19:34:08.612Z,9.62
2023-04-15T19:36:39.735Z,9.60
2023-04-15T19:39:10.967Z,9.60
2023-04-15T19:41:45.219Z,9.60
2023-04-15T19:44:16.257Z,9.58
2023-04-15T19:46:51.154Z,9.50
2023-04-15T19:49:27.478Z,9.50
2023-04-15T19:51:58.173Z,9.50
2023-04-15T19:54:28.717Z,9.50
2023-04-15T19:57:00.325Z,9.42
2023-04-15T19:59:33.784Z,9.40
2023-04-15T20:02:08.091Z,9.40
2023-04-15T20:04:38.939Z,9.40
2023-04-15T20:07:11.041Z,9.40
2023-04-15T20:09:41.967Z,9.40
2023-04-15T20:12:51.589Z,9.34
2023-04-15T20:15:08.457Z,9.30
2023-04-15T20:17:39.284Z,9.30
2023-04-15T20:20:10.873Z,9.28
2023-04-15T20:22:41.577Z,9.20
2023-04-15T20:25:13.494Z,9.20
2023-04-15T20:27:48.185Z,9.16
2023-04-15T20:30:23.104Z,9.10
2023-04-15T20:32:56.804Z,9.10
2023-04-15T20:35:32.663Z,9.10
2023-04-15T20:38:05.873Z,9.04
2023-04-15T20:43:11.133Z,9.10
2023-04-15T20:45:41.930Z,9.10
2023-04-15T20:48:12.084Z,9.00
2023-04-15T20:50:45.342Z,9.00
2023-04-15T20:53:19.583Z,9.00
2023-04-15T20:55:50.091Z,9.00
2023-04-15T20:58:21.645Z,9.00
2023-04-15T21:00:56.234Z,9.00
2023-04-15T21:03:32.124Z,8.94
2023-04-15T21:06:05.852Z,8.90
2023-04-15T21:08:37.493Z,8.90
2023-04-15T21:11:10.330Z,8.90
2023-04-15T21:13:41.903Z,8.88
2023-04-15T21:16:14.280Z,8.80
2023-04-15T21:18:48.073Z,8.80
2023-04-15T21:21:18.948Z,8.80
2023-04-15T21:23:47.902Z,8.78
2023-04-15T21:26:16.702Z,8.70
2023-04-15T21:28:46.145Z,8.70
2023-04-15T21:31:16.678Z,8.70
2023-04-15T21:33:48.627Z,8.70
2023-04-15T21:36:19.649Z,8.60
2023-04-15T21:38:49.762Z,8.60
2023-04-15T21:41:18.707Z,8.50
2023-04-15T21:43:47.542Z,8.40
2023-04-15T21:46:23.537Z,8.30
2023-04-15T21:48:54.754Z,8.20
2023-04-15T21:51:23.946Z,8.10
2023-04-15T21:53:53.249Z,8.00
2023-04-15T21:56:24.515Z,7.90
2023-04-15T21:58:57.389Z,7.80
